NORTHEAST SUFFOLK  -  Special Weather Statement Special Weather Statement        NORTHERN NASSAU  -  Special Weather Statement Special Weather Statement        NORTHWEST SUFFOLK  -  Special Weather Statement Special Weather Statement        SOUTHEAST SUFFOLK  -  Special Weather Statement Special Weather Statement        SOUTHERN NASSAU  -  Special Weather Statement Special Weather Statement        SOUTHWEST SUFFOLK  -  Special Weather Statement Special Weather Statement      

Active alerts

Northern Nassau
  Details for Northern Nassau Special Weather Statement
Southern Nassau
  Details for Southern Nassau Special Weather Statement
Northwest Suffolk
  Details for Northwest Suffolk Special Weather Statement
Southwest Suffolk
  Details for Southwest Suffolk Special Weather Statement
Northeast Suffolk
  Details for Northeast Suffolk Special Weather Statement
Southeast Suffolk
  Details for Southeast Suffolk Special Weather Statement


WXM80 ListenWXM80 Stop

You find our weather info also at:

UK Metoffice

WeatherCloud

Weather Underground

Northeastern Weather Network

AWEKAS

Citizen Weather Observer Program (CWOP)

HAMweather, WeatherForYou, PWS Weather


Weather Underground History page Text

Daily Summary for December 5, 2017 Units:  Metric    English   Both
« Previous Day
Next Day »
Daily Weekly Monthly Yearly Custom
  High: Low: Average:
Temperature: 16.3 °C 6.2 °C 12.4 °C
Dew Point: 14.7 °C 4.1 °C 10.6 °C
Humidity: 96 % 82 % 89 %
Wind Speed: 22.4 km/h 0 km/h 8.7 km/h
Wind Gust: 38.6 km/h - -
Wind:- - South
Pressure: 1029.7 hPa 1009 hPa -
Precipitation: 1.02 mm    
Historical Graphs
 
 
Tabular Data for December 5, 2017
Time Temperature Dew Point Pressure Wind Wind Speed Wind Gust Humidity Rainfall Rate (Hourly)
00:01 6.7 °C 4.2 °C 1029.7 hPa Calm   1.9 km/h 84 % 0 mm
00:11 6.7 °C 4.2 °C 1029.7 hPa Calm   1.9 km/h 84 % 0 mm
00:17 6.7 °C 4.2 °C 1029.3 hPa Calm     84 % 0 mm
00:22 6.7 °C 4.2 °C 1029.7 hPa Calm     84 % 0 mm
00:27 6.6 °C 4.1 °C 1029.7 hPa Calm     84 % 0 mm
00:32 6.6 °C 4.1 °C 1029.3 hPa SE 0.5 km/h 1.9 km/h 84 % 0 mm
00:37 6.6 °C 4.1 °C 1029.3 hPa Calm   1.9 km/h 84 % 0 mm
00:42 6.6 °C 4.1 °C 1029.3 hPa Calm     84 % 0 mm
00:47 6.6 °C 4.1 °C 1029.3 hPa Calm     84 % 0 mm
00:52 6.6 °C 4.1 °C 1029.3 hPa SE 0.2 km/h 1.9 km/h 84 % 0 mm
00:57 6.5 °C 4.2 °C 1029 hPa SE 1.3 km/h 3.7 km/h 85 % 0 mm
01:02 6.4 °C 4.1 °C 1029 hPa SE 4.3 km/h 6.4 km/h 85 % 0 mm
01:07 6.4 °C 4.1 °C 1029 hPa SE 3.1 km/h 5.6 km/h 85 % 0 mm
01:12 6.4 °C 4.1 °C 1029 hPa SE 3.1 km/h 5.6 km/h 85 % 0 mm
01:22 6.4 °C 4.2 °C 1029 hPa SE 1.6 km/h 5.6 km/h 86 % 0 mm
01:27 6.4 °C 4.3 °C 1029 hPa SE 1.8 km/h 5.6 km/h 86 % 0 mm
01:32 6.4 °C 4.3 °C 1029 hPa SE 2.3 km/h 5.6 km/h 86 % 0 mm
01:37 6.5 °C 4.3 °C 1029 hPa SE 2.4 km/h 5.6 km/h 86 % 0 mm
01:42 6.6 °C 4.4 °C 1028.7 hPa SE 0.2 km/h 1.9 km/h 86 % 0 mm
01:47 6.6 °C 4.4 °C 1028.7 hPa Calm     86 % 0 mm
01:53 6.6 °C 4.4 °C 1029 hPa Calm     86 % 0 mm
01:58 6.7 °C 4.5 °C 1029 hPa Calm     86 % 0 mm
02:03 6.7 °C 4.5 °C 1029 hPa Calm     86 % 0 mm
02:08 6.7 °C 4.5 °C 1029 hPa Calm     86 % 0 mm
02:13 6.7 °C 4.5 °C 1028.7 hPa Calm     86 % 0 mm
02:18 6.7 °C 4.5 °C 1028.7 hPa Calm     86 % 0 mm
02:23 6.6 °C 4.3 °C 1028.7 hPa Calm     85 % 0 mm
02:28 6.6 °C 4.2 °C 1028.3 hPa Calm     85 % 0 mm
02:33 6.6 °C 4.4 °C 1028.3 hPa Calm     86 % 0 mm
02:38 6.4 °C 4.3 °C 1028 hPa Calm     86 % 0 mm
02:43 6.4 °C 4.2 °C 1028 hPa Calm     86 % 0 mm
02:48 6.3 °C 4.2 °C 1027.7 hPa Calm     86 % 0 mm
02:53 6.3 °C 4.1 °C 1027.7 hPa Calm     86 % 0 mm
02:58 6.2 °C 4.2 °C 1027.7 hPa Calm   1.9 km/h 87 % 0 mm
02:59 6.2 °C 4.2 °C 1027.7 hPa Calm     87 % 0 mm
03:04 6.2 °C 4.2 °C 1027.7 hPa SE 0.2 km/h 1.9 km/h 87 % 0 mm
03:09 6.2 °C 4.3 °C 1027.7 hPa SE 1 km/h 1.9 km/h 88 % 0 mm
03:15 6.2 °C 4.3 °C 1027.7 hPa SE 0.2 km/h 3.7 km/h 88 % 0 mm
03:20 6.2 °C 4.3 °C 1027.7 hPa Calm     88 % 0 mm
03:25 6.2 °C 4.6 °C 1027.7 hPa Calm     89 % 0 mm
03:30 6.2 °C 4.6 °C 1027.3 hPa SE 1 km/h 3.7 km/h 89 % 0 mm
03:35 6.3 °C 4.8 °C 1027.3 hPa SE 0.2 km/h 1.9 km/h 90 % 0 mm
03:40 6.3 °C 4.8 °C 1027.3 hPa SE 1.4 km/h 5.6 km/h 90 % 0 mm
03:45 6.4 °C 4.9 °C 1027.3 hPa SE 2.3 km/h 3.7 km/h 90 % 0 mm
03:50 6.6 °C 5.2 °C 1027 hPa SE 2.7 km/h 5.6 km/h 91 % 0 mm
03:55 6.9 °C 5.6 °C 1027 hPa SE 4 km/h 7.4 km/h 91 % 0 mm
04:00 7.1 °C 5.7 °C 1027 hPa SE 3.2 km/h 6.4 km/h 91 % 0 mm
04:10 7.7 °C 5.9 °C 1027 hPa SSE 3.4 km/h 11.1 km/h 89 % 0 mm
04:15 7.9 °C 6.2 °C 1027 hPa SSE 0.2 km/h 3.7 km/h 89 % 0 mm
04:20 8.2 °C 6.3 °C 1027 hPa SSE 4 km/h 11.1 km/h 88 % 0 mm
04:25 8.4 °C 6.3 °C 1027 hPa SSE 2.6 km/h 5.6 km/h 87 % 0 mm
04:30 8.7 °C 6.4 °C 1026.6 hPa SSE 3.5 km/h 9.3 km/h 86 % 0 mm
04:35 8.9 °C 6.6 °C 1026.6 hPa SSE 4.2 km/h 11.1 km/h 85 % 0 mm
04:40 9.1 °C 6.6 °C 1026.6 hPa SSE 3.7 km/h 11.1 km/h 84 % 0 mm
04:45 9.3 °C 6.7 °C 1026.6 hPa SSE 8.5 km/h 14.8 km/h 84 % 0 mm
04:50 9.4 °C 6.7 °C 1026.6 hPa SE 3.1 km/h 5.6 km/h 83 % 0 mm
04:55 9.4 °C 6.7 °C 1026.6 hPa SSE 4.7 km/h 5.6 km/h 83 % 0 mm
05:00 9.4 °C 6.7 °C 1026.6 hPa SSE 9.2 km/h 13 km/h 83 % 0 mm
05:05 9.5 °C 6.8 °C 1026.6 hPa SSE 4.3 km/h 5.6 km/h 83 % 0 mm
05:10 9.6 °C 6.8 °C 1026.6 hPa SSE 4.2 km/h 7.4 km/h 83 % 0 mm
05:11 9.6 °C 6.8 °C 1026.6 hPa SSE 3.2 km/h 9.7 km/h 83 % 0 mm
05:15 9.6 °C 6.7 °C 1026.3 hPa SSE 3.2 km/h 8 km/h 82 % 0 mm
05:21 9.7 °C 6.7 °C 1026.3 hPa SSE 9.7 km/h 12.9 km/h 82 % 0 mm
05:26 9.7 °C 6.7 °C 1026.3 hPa SE 4.5 km/h 9.3 km/h 82 % 0 mm
05:31 9.7 °C 6.7 °C 1026.3 hPa SE 2.3 km/h 5.6 km/h 82 % 0 mm
05:36 9.7 °C 6.7 °C 1026.3 hPa SSE 7.4 km/h 13 km/h 82 % 0 mm
05:46 9.7 °C 6.7 °C 1026.3 hPa SE 3.5 km/h 7.4 km/h 82 % 0 mm
05:56 9.7 °C 6.7 °C 1026 hPa SSE 8 km/h 16.1 km/h 82 % 0 mm
06:01 9.7 °C 6.8 °C 1026 hPa SSE 5.6 km/h 11.1 km/h 82 % 0 mm
06:06 9.8 °C 7.1 °C 1025.6 hPa SSE 7.6 km/h 13 km/h 83 % 0 mm
06:11 9.9 °C 7.1 °C 1026 hPa SE 9.2 km/h 11.1 km/h 83 % 0 mm
06:12 9.9 °C 7.1 °C 1026 hPa SE 6.9 km/h 18.5 km/h 83 % 0 mm
06:17 10 °C 7.1 °C 1026 hPa ESE 8.2 km/h 12.9 km/h 82 % 0 mm
06:22 10.1 °C 7.1 °C 1025.6 hPa SSE 6.3 km/h 11.1 km/h 82 % 0 mm
06:27 10.2 °C 7.4 °C 1025.6 hPa SSE 6.1 km/h 14.5 km/h 83 % 0 mm
06:32 10.3 °C 7.5 °C 1025.6 hPa SE 3.5 km/h 9.3 km/h 83 % 0 mm
06:37 10.3 °C 7.6 °C 1025.6 hPa SE 6.1 km/h 7.4 km/h 83 % 0 mm
06:42 10.3 °C 7.6 °C 1025.6 hPa South 3.9 km/h 5.6 km/h 83 % 0 mm
06:47 10.4 °C 7.6 °C 1025.6 hPa SSE 3.5 km/h 6.4 km/h 83 % 0 mm
06:52 10.4 °C 7.7 °C 1025.6 hPa SSE 8 km/h 16.7 km/h 83 % 0 mm
06:57 10.6 °C 7.8 °C 1025.6 hPa SSE 8 km/h 18.5 km/h 83 % 0 mm
07:02 10.7 °C 7.9 °C 1026 hPa SSE 8.9 km/h 18.5 km/h 83 % 0 mm
07:07 10.8 °C 8 °C 1025.6 hPa South 10 km/h 14.8 km/h 83 % 0 mm
07:12 10.8 °C 8.1 °C 1025.3 hPa South 10.9 km/h 11.1 km/h 83 % 0 mm
07:17 10.9 °C 8.1 °C 1025.6 hPa SE 13.7 km/h 31.5 km/h 83 % 0 mm
07:22 10.9 °C 8.2 °C 1025.6 hPa South 7.2 km/h 18.5 km/h 83 % 0 mm
07:28 10.9 °C 8.2 °C 1025.6 hPa SE 10.5 km/h 13 km/h 83 % 0 mm
07:33 10.9 °C 8.2 °C 1024.9 hPa South 8.9 km/h 20.4 km/h 83 % 0 mm
07:38 10.9 °C 8.2 °C 1024.9 hPa South 15.3 km/h 25.9 km/h 83 % 0 mm
07:48 11 °C 8.4 °C 1025.3 hPa SSE 6.9 km/h 18.5 km/h 84 % 0 mm
07:53 11.1 °C 8.4 °C 1025.3 hPa SSE 6.6 km/h 18.5 km/h 84 % 0 mm
07:58 11.1 °C 8.5 °C 1025.3 hPa South 11.3 km/h 18.5 km/h 84 % 0 mm
08:03 11.2 °C 8.6 °C 1024.9 hPa SE 6.3 km/h 13 km/h 84 % 0 mm
08:08 11.2 °C 8.6 °C 1024.9 hPa SSE 10.6 km/h 18.5 km/h 84 % 0 mm
08:13 11.3 °C 8.8 °C 1024.9 hPa SSE 13 km/h 20.4 km/h 85 % 0 mm
08:18 11.3 °C 8.8 °C 1024.9 hPa SE 17.9 km/h 29.6 km/h 85 % 0 mm
08:28 11.4 °C 8.9 °C 1024.6 hPa SSE 10.8 km/h 20.4 km/h 85 % 0 mm
08:33 11.4 °C 9 °C 1024.6 hPa SSE 8.4 km/h 19.3 km/h 85 % 0 mm
08:38 11.5 °C 8.9 °C 1024.3 hPa South 12.7 km/h 22.2 km/h 84 % 0 mm
08:43 11.6 °C 8.9 °C 1024.6 hPa SE 10.9 km/h 20.4 km/h 84 % 0 mm
08:48 11.6 °C 9 °C 1024.6 hPa SSE 15.4 km/h 24.1 km/h 84 % 0 mm
08:53 11.6 °C 9.2 °C 1024.6 hPa South 12.4 km/h 18.5 km/h 85 % 0 mm
08:58 11.6 °C 9.3 °C 1024.6 hPa SSW 12.1 km/h 18.5 km/h 86 % 0 mm
09:03 11.6 °C 9.3 °C 1024.6 hPa SSE 8.5 km/h 16.7 km/h 86 % 0 mm
09:08 11.6 °C 9.3 °C 1024.3 hPa South 7.2 km/h 14.8 km/h 86 % 0 mm
09:13 11.7 °C 9.4 °C 1024.3 hPa SE 13.2 km/h 20.9 km/h 86 % 0 mm
09:18 11.7 °C 9.4 °C 1023.9 hPa SE 6.9 km/h 20.4 km/h 86 % 0 mm
09:23 11.8 °C 9.5 °C 1023.9 hPa South 13 km/h 18.5 km/h 86 % 0 mm
09:28 11.8 °C 9.6 °C 1023.9 hPa SE 11.1 km/h 11.1 km/h 86 % 0 mm
09:33 11.9 °C 9.8 °C 1023.6 hPa SSE 7.2 km/h 18.5 km/h 87 % 0 mm
09:38 11.9 °C 9.8 °C 1023.6 hPa SSE 8.9 km/h 17.7 km/h 87 % 0 mm
09:43 12 °C 9.9 °C 1023.9 hPa SSE 6.8 km/h 11.3 km/h 87 % 0 mm
09:48 12 °C 9.9 °C 1023.6 hPa South 5 km/h 9.7 km/h 87 % 0 mm
09:53 12.1 °C 9.9 °C 1023.6 hPa SSE 7.7 km/h 18.5 km/h 87 % 0 mm
09:58 12.1 °C 10.2 °C 1023.2 hPa SE 12.4 km/h 18.5 km/h 88 % 0 mm
10:03 12.2 °C 10.2 °C 1023.2 hPa South 8.5 km/h 14.8 km/h 88 % 0 mm
10:13 12.3 °C 10.4 °C 1023.2 hPa SSE 15.1 km/h 27.8 km/h 88 % 0 mm
10:18 12.4 °C 10.5 °C 1023.2 hPa South 5.5 km/h 13 km/h 88 % 0 mm
10:23 12.6 °C 10.7 °C 1022.9 hPa South 15.6 km/h 29.6 km/h 88 % 0 mm
10:28 12.8 °C 10.7 °C 1022.9 hPa SE 9 km/h 18.5 km/h 87 % 0 mm
10:33 12.8 °C 10.7 °C 1022.6 hPa SSE 12.2 km/h 22.5 km/h 87 % 0 mm
10:39 12.9 °C 10.8 °C 1022.6 hPa SSW 10.8 km/h 19.3 km/h 87 % 0 mm
10:44 13.1 °C 10.9 °C 1022.2 hPa SSW 10.9 km/h 20.4 km/h 87 % 0 mm
10:49 13.1 °C 11 °C 1022.2 hPa SSE 11.3 km/h 25.9 km/h 87 % 0 mm
10:54 13.1 °C 11.1 °C 1021.9 hPa South 13 km/h 19.3 km/h 88 % 0 mm
10:59 13.1 °C 11.3 °C 1021.9 hPa South 12.1 km/h 25.9 km/h 89 % 0 mm
11:04 13.1 °C 11.3 °C 1021.6 hPa SSE 10.9 km/h 20.4 km/h 89 % 0 mm
11:09 13.1 °C 11.3 °C 1021.6 hPa SE 8.9 km/h 29.6 km/h 89 % 0 mm
11:14 13.2 °C 11.4 °C 1021.6 hPa South 12.6 km/h 24.1 km/h 89 % 0 mm
11:19 13.2 °C 11.4 °C 1021.2 hPa South 13.2 km/h 25.9 km/h 89 % 0 mm
11:24 13.2 °C 11.6 °C 1021.2 hPa SSE 12.9 km/h 18.5 km/h 90 % 0 mm
11:29 13.2 °C 11.6 °C 1021.2 hPa SE 10.9 km/h 17.7 km/h 90 % 0 mm
11:34 13.3 °C 11.7 °C 1020.9 hPa South 4.5 km/h 11.3 km/h 90 % 0 mm
11:39 13.3 °C 11.7 °C 1020.9 hPa SSW 13.4 km/h 18.5 km/h 90 % 0 mm
11:44 13.3 °C 11.7 °C 1020.9 hPa SSE 18.8 km/h 29.6 km/h 90 % 0 mm
11:49 13.3 °C 11.8 °C 1020.5 hPa SSE 9.8 km/h 18.5 km/h 91 % 0 mm
11:54 13.3 °C 11.8 °C 1020.5 hPa SSW 10 km/h 16.1 km/h 91 % 0 mm
11:59 13.3 °C 11.8 °C 1020.2 hPa South 10.6 km/h 20.4 km/h 91 % 0 mm
12:04 13.4 °C 11.9 °C 1020.2 hPa SE 6.8 km/h 22.5 km/h 91 % 0 mm
12:09 13.4 °C 12 °C 1020.5 hPa South 10.9 km/h 13 km/h 91 % 0 mm
12:14 13.5 °C 12.1 °C 1020.2 hPa South 8.5 km/h 16.7 km/h 91 % 0 mm
12:19 13.6 °C 12.1 °C 1020.2 hPa SSE 8.9 km/h 18.5 km/h 91 % 0 mm
12:24 13.7 °C 12.2 °C 1020.2 hPa SSW 7.6 km/h 14.8 km/h 91 % 0 mm
12:29 13.8 °C 12.3 °C 1019.9 hPa South 7.6 km/h 14.8 km/h 91 % 0 mm
12:34 13.9 °C 12.5 °C 1019.9 hPa South 6.4 km/h 13 km/h 91 % 0 mm
12:39 14.1 °C 12.7 °C 1019.9 hPa SSW 5.1 km/h 13 km/h 91 % 0 mm
12:45 14.3 °C 12.7 °C 1019.5 hPa South 8.9 km/h 18.5 km/h 90 % 0 mm
12:50 14.4 °C 12.8 °C 1019.2 hPa SSE 12.6 km/h 16.7 km/h 90 % 0 mm
12:55 14.6 °C 12.8 °C 1018.8 hPa SSW 8.9 km/h 18.5 km/h 89 % 0 mm
13:00 14.7 °C 12.9 °C 1018.8 hPa SSE 10.8 km/h 24.1 km/h 89 % 0 mm
13:05 14.9 °C 13.1 °C 1018.8 hPa South 9.3 km/h 24.1 km/h 89 % 0 mm
13:10 15.1 °C 13.1 °C 1018.5 hPa SSW 7.4 km/h 18.5 km/h 88 % 0 mm
13:15 15.2 °C 13.2 °C 1018.2 hPa South 8 km/h 18.5 km/h 88 % 0 mm
13:20 15.3 °C 13.2 °C 1018.2 hPa South 7.1 km/h 13 km/h 87 % 0 mm
13:25 15.5 °C 13.3 °C 1018.2 hPa SSW 15.8 km/h 27.8 km/h 87 % 0 mm
13:30 15.7 °C 13.3 °C 1018.2 hPa South 9.3 km/h 14.5 km/h 86 % 0 mm
13:35 15.8 °C 13.4 °C 1018.2 hPa South 9.7 km/h 18.5 km/h 86 % 0 mm
13:40 15.9 °C 13.4 °C 1017.5 hPa South 7.2 km/h 16.7 km/h 85 % 0 mm
13:45 15.9 °C 13.4 °C 1017.5 hPa South 13.4 km/h 24.1 km/h 85 % 0 mm
13:50 16.1 °C 13.6 °C 1017.5 hPa SSW 13.8 km/h 25.7 km/h 85 % 0 mm
13:55 16.1 °C 13.6 °C 1017.2 hPa SSW 15.3 km/h 25.7 km/h 85 % 0 mm
14:00 16.2 °C 13.4 °C 1017.2 hPa South 6.4 km/h 18.5 km/h 84 % 0 mm
14:05 16.2 °C 13.5 °C 1017.2 hPa South 18.5 km/h 32.2 km/h 84 % 0 mm
14:10 16.3 °C 13.6 °C 1017.2 hPa SSE 9.3 km/h 14.8 km/h 84 % 0 mm
14:15 16.3 °C 13.6 °C 1017.2 hPa South 10.3 km/h 19.3 km/h 84 % 0 mm
14:20 16.3 °C 13.6 °C 1016.8 hPa SSE 11.4 km/h 24.1 km/h 84 % 0 mm
14:30 16.3 °C 13.6 °C 1017.2 hPa SSE 11.3 km/h 20.4 km/h 84 % 0 mm
14:35 16.3 °C 13.6 °C 1017.2 hPa SSW 11.7 km/h 14.8 km/h 84 % 0 mm
14:40 16.3 °C 13.6 °C 1017.2 hPa South 15.6 km/h 22.5 km/h 84 % 0 mm
14:45 16.3 °C 13.6 °C 1017.2 hPa South 11.1 km/h 18.5 km/h 84 % 0 mm
14:50 16.3 °C 13.6 °C 1017.2 hPa South 13 km/h 38.6 km/h 84 % 0 mm
14:55 16.3 °C 13.6 °C 1017.2 hPa SSW 14.6 km/h 22.2 km/h 84 % 0 mm
15:00 16.2 °C 13.7 °C 1017.2 hPa SW 11.1 km/h 27.8 km/h 85 % 0 mm
15:05 16.2 °C 13.7 °C 1016.8 hPa South 7.6 km/h 24.1 km/h 85 % 0 mm
15:15 16.2 °C 13.7 °C 1016.8 hPa SSE 14.3 km/h 22.2 km/h 85 % 0 mm
15:20 16.1 °C 13.6 °C 1016.5 hPa SSW 10.6 km/h 25.9 km/h 85 % 0 mm
15:25 16.1 °C 13.7 °C 1016.8 hPa South 13 km/h 18.5 km/h 86 % 0 mm
15:31 16 °C 13.7 °C 1016.8 hPa South 11.7 km/h 27.8 km/h 86 % 0 mm
15:36 15.9 °C 13.6 °C 1016.8 hPa SSW 14.2 km/h 18.5 km/h 86 % 0 mm
15:41 15.9 °C 13.6 °C 1016.5 hPa SSW 11.3 km/h 19.3 km/h 86 % 0 mm
15:51 15.8 °C 13.6 °C 1016.5 hPa SW 15.3 km/h 22.2 km/h 87 % 0 mm
15:56 15.7 °C 13.6 °C 1016.5 hPa SSW 9.7 km/h 24.1 km/h 87 % 0 mm
16:01 15.7 °C 13.6 °C 1016.5 hPa SSW 9.5 km/h 20.9 km/h 87 % 0 mm
16:06 15.7 °C 13.5 °C 1016.5 hPa South 15.3 km/h 22.5 km/h 87 % 0 mm
16:11 15.6 °C 13.6 °C 1016.1 hPa South 14.5 km/h 24.1 km/h 88 % 0 mm
16:16 15.6 °C 13.6 °C 1016.1 hPa South 11.3 km/h 25.7 km/h 88 % 0 mm
16:21 15.6 °C 13.6 °C 1016.1 hPa South 9.7 km/h 24.1 km/h 88 % 0 mm
16:26 15.5 °C 13.5 °C 1015.8 hPa SSW 11.3 km/h 32.2 km/h 88 % 0 mm
16:31 15.4 °C 13.4 °C 1015.8 hPa SSW 11.3 km/h 25.7 km/h 88 % 0 mm
16:36 15.4 °C 13.6 °C 1015.8 hPa South 12.9 km/h 20.9 km/h 89 % 0 mm
16:41 15.3 °C 13.6 °C 1015.8 hPa South 11.3 km/h 25.7 km/h 89 % 0 mm
16:46 15.3 °C 13.5 °C 1015.8 hPa South 12.9 km/h 29 km/h 89 % 0 mm
16:51 15.3 °C 13.7 °C 1015.8 hPa South 9.7 km/h 24.1 km/h 90 % 0 mm
16:56 15.3 °C 13.7 °C 1015.5 hPa South 12.9 km/h 25.7 km/h 90 % 0 mm
17:01 15.3 °C 13.9 °C 1015.8 hPa SSW 14.2 km/h 20.4 km/h 91 % 0 mm
17:06 15.3 °C 13.9 °C 1015.8 hPa South 8.5 km/h 22.2 km/h 91 % 0 mm
17:11 15.3 °C 14 °C 1015.8 hPa SSW 13.4 km/h 14.8 km/h 92 % 0 mm
17:16 15.3 °C 14 °C 1015.5 hPa SW 8 km/h 20.4 km/h 92 % 0 mm
17:21 15.3 °C 14 °C 1015.8 hPa SSW 10.1 km/h 20.4 km/h 92 % 0 mm
17:26 15.3 °C 14 °C 1015.5 hPa South 7.6 km/h 16.7 km/h 92 % 0 mm
17:31 15.3 °C 14.2 °C 1015.1 hPa South 11.4 km/h 18.5 km/h 93 % 0 mm
17:36 15.3 °C 14.2 °C 1015.1 hPa South 10.9 km/h 18.5 km/h 93 % 0 mm
17:41 15.2 °C 14.1 °C 1014.8 hPa South 11.6 km/h 22.2 km/h 93 % 0 mm
17:46 15.2 °C 14.1 °C 1014.8 hPa SSW 9.8 km/h 16.7 km/h 93 % 0 mm
17:51 15.2 °C 14.1 °C 1014.4 hPa SSW 18 km/h 31.5 km/h 93 % 0 mm
17:56 15.2 °C 14.1 °C 1014.4 hPa SSW 12.1 km/h 27.8 km/h 93 % 0 mm
18:01 15.2 °C 14.1 °C 1014.4 hPa SSW 12.4 km/h 18.5 km/h 93 % 0 mm
18:06 15.2 °C 14.1 °C 1014.4 hPa South 9.2 km/h 14.5 km/h 93 % 0 mm
18:11 15.2 °C 14.1 °C 1014.1 hPa SSW 11.1 km/h 22.2 km/h 93 % 0 mm
18:16 15.2 °C 14.1 °C 1014.1 hPa South 14.6 km/h 24.1 km/h 93 % 0 mm
18:21 15.2 °C 14.3 °C 1014.1 hPa SSW 10.9 km/h 24.1 km/h 94 % 0 mm
18:26 15.2 °C 14.3 °C 1014.1 hPa SSW 14 km/h 29.6 km/h 94 % 0 mm
18:31 15.3 °C 14.3 °C 1013.8 hPa South 13.4 km/h 27.8 km/h 94 % 0 mm
18:36 15.3 °C 14.4 °C 1014.1 hPa SSW 16.7 km/h 31.5 km/h 94 % 0 mm
18:41 15.4 °C 14.4 °C 1013.8 hPa South 22.4 km/h 37 km/h 94 % 0 mm
18:46 15.4 °C 14.5 °C 1013.8 hPa South 9.8 km/h 22.2 km/h 94 % 0 mm
18:51 15.5 °C 14.6 °C 1013.4 hPa SSW 12.4 km/h 16.7 km/h 94 % 0 mm
18:56 15.5 °C 14.4 °C 1013.4 hPa South 8.9 km/h 14.5 km/h 93 % 0 mm
19:02 15.5 °C 14.4 °C 1013.4 hPa South 16.1 km/h 24.1 km/h 93 % 0 mm
19:07 15.5 °C 14.4 °C 1013.4 hPa SSW 9 km/h 18.5 km/h 93 % 0 mm
19:12 15.6 °C 14.4 °C 1013.1 hPa SSW 12.6 km/h 20.4 km/h 93 % 0 mm
19:17 15.6 °C 14.4 °C 1013.1 hPa South 10.8 km/h 18.5 km/h 93 % 0 mm
19:22 15.6 °C 14.4 °C 1013.1 hPa SW 13.4 km/h 18.5 km/h 93 % 0 mm
19:27 15.6 °C 14.4 °C 1013.1 hPa SW 13.7 km/h 24.1 km/h 93 % 0 mm
19:32 15.6 °C 14.4 °C 1013.1 hPa SSW 12.1 km/h 27.8 km/h 93 % 0 mm
19:37 15.6 °C 14.5 °C 1012.8 hPa SSW 15.4 km/h 25.9 km/h 93 % 0 mm
19:42 15.6 °C 14.5 °C 1013.1 hPa SSW 7.6 km/h 14.8 km/h 93 % 0 mm
19:47 15.7 °C 14.6 °C 1012.8 hPa South 14.8 km/h 24.1 km/h 93 % 0 mm
19:48 15.7 °C 14.6 °C 1012.8 hPa SSW 15.1 km/h 24.1 km/h 93 % 0 mm
19:53 15.7 °C 14.6 °C 1012.8 hPa SW 9.3 km/h 16.7 km/h 93 % 0 mm
19:58 15.7 °C 14.6 °C 1012.4 hPa SSE 16.7 km/h 25.9 km/h 93 % 0 mm
20:03 15.7 °C 14.6 °C 1012.8 hPa South 14.5 km/h 22.5 km/h 93 % 0 mm
20:08 15.7 °C 14.6 °C 1012.4 hPa SSE 18.3 km/h 33.3 km/h 93 % 0 mm
20:13 15.7 °C 14.6 °C 1012.4 hPa South 18 km/h 27.8 km/h 93 % 0 mm
20:18 15.7 °C 14.6 °C 1012.4 hPa SSW 17.7 km/h 31.5 km/h 93 % 0 mm
20:23 15.7 °C 14.6 °C 1012.1 hPa SSE 13.2 km/h 27.8 km/h 93 % 0 mm
20:28 15.7 °C 14.6 °C 1011.7 hPa South 11.3 km/h 18.5 km/h 93 % 0 mm
20:33 15.7 °C 14.6 °C 1012.1 hPa SSW 19.2 km/h 31.5 km/h 93 % 0 mm
20:38 15.7 °C 14.6 °C 1011.7 hPa SSW 9 km/h 20.4 km/h 93 % 0 mm
20:43 15.7 °C 14.7 °C 1011.7 hPa South 12.4 km/h 37 km/h 94 % 0 mm
20:48 15.6 °C 14.7 °C 1011.7 hPa SSW 8.9 km/h 14.5 km/h 94 % 0 mm
20:53 15.6 °C 14.7 °C 1011.4 hPa South 17.5 km/h 33.3 km/h 94 % 0 mm
20:58 15.6 °C 14.6 °C 1011.4 hPa SSW 15.1 km/h 30.6 km/h 94 % 0 mm
21:03 15.6 °C 14.6 °C 1011.7 hPa SSW 10.5 km/h 27.8 km/h 94 % 0 mm
21:08 15.5 °C 14.6 °C 1011.4 hPa South 11.7 km/h 29.6 km/h 94 % 0 mm
21:13 15.4 °C 14.5 °C 1011.4 hPa SSW 20.4 km/h 37 km/h 94 % 0 mm
21:18 15.4 °C 14.5 °C 1011.4 hPa SSW 17.1 km/h 31.5 km/h 94 % 0 mm
21:23 15.3 °C 14.4 °C 1011.4 hPa SSW 14.8 km/h 25.9 km/h 94 % 0 mm
21:28 15.3 °C 14.6 °C 1011.4 hPa SSW 16.4 km/h 25.9 km/h 95 % 0 mm
21:33 15.3 °C 14.5 °C 1011.4 hPa South 14.6 km/h 27.8 km/h 95 % 0 mm
21:38 15.3 °C 14.5 °C 1011.4 hPa SW 7.2 km/h 11.3 km/h 95 % 0 mm
21:43 15.2 °C 14.4 °C 1011.4 hPa SSW 10.8 km/h 22.2 km/h 95 % 0 mm
21:48 15.2 °C 14.4 °C 1011.4 hPa SW 15.4 km/h 31.5 km/h 95 % 0 mm
21:53 15.2 °C 14.4 °C 1011.1 hPa SSE 13.2 km/h 25.9 km/h 95 % 0 mm
21:58 15.2 °C 14.4 °C 1011.1 hPa SSW 16.1 km/h 27.8 km/h 95 % 0.25 mm
22:03 15.2 °C 14.4 °C 1011.4 hPa WSW 16.9 km/h 24.1 km/h 95 % 0.51 mm
22:08 15.2 °C 14.4 °C 1011.4 hPa SSW 8.4 km/h 14.8 km/h 95 % 0.76 mm
22:13 15.1 °C 14.3 °C 1011.1 hPa SSW 4.2 km/h 11.1 km/h 95 % 0.76 mm
22:18 15.1 °C 14.3 °C 1011.4 hPa West 5.8 km/h 16.7 km/h 95 % 0.76 mm
22:23 15 °C 14.2 °C 1011.1 hPa South 8.7 km/h 14.8 km/h 95 % 0.76 mm
22:28 14.9 °C 14.2 °C 1010.7 hPa SSW 8.9 km/h 11.1 km/h 95 % 0.76 mm
22:33 14.9 °C 14.1 °C 1010.7 hPa SW 2.9 km/h 6.4 km/h 95 % 0.76 mm
22:38 14.8 °C 14.1 °C 1011.1 hPa SW 7.2 km/h 14.8 km/h 95 % 0.76 mm
22:43 14.8 °C 14 °C 1010.7 hPa South 3.9 km/h 11.1 km/h 95 % 0.76 mm
22:49 14.7 °C 13.9 °C 1010.7 hPa South 6.1 km/h 9.3 km/h 95 % 0.76 mm
22:54 14.7 °C 13.9 °C 1010.7 hPa SSW 4 km/h 9.3 km/h 95 % 0.76 mm
22:59 14.6 °C 13.8 °C 1011.1 hPa SW 9.5 km/h 14.8 km/h 95 % 0.51 mm
23:04 14.6 °C 13.8 °C 1010.7 hPa SSW 8 km/h 11.1 km/h 95 % 0.25 mm
23:09 14.6 °C 13.8 °C 1010.4 hPa SSW 8.4 km/h 14.8 km/h 95 % 0 mm
23:14 14.6 °C 13.9 °C 1010.4 hPa SSW 6.9 km/h 13 km/h 96 % 0.25 mm
23:19 14.5 °C 13.9 °C 1010 hPa South 5.1 km/h 11.1 km/h 96 % 0.25 mm
23:24 14.5 °C 13.9 °C 1010 hPa South 4.2 km/h 11.1 km/h 96 % 0.25 mm
23:29 14.5 °C 13.9 °C 1009.7 hPa SSW 8.5 km/h 18.5 km/h 96 % 0.25 mm
23:34 14.4 °C 13.8 °C 1009.4 hPa South 4.8 km/h 11.3 km/h 96 % 0.25 mm
23:39 14.4 °C 13.8 °C 1009.4 hPa SSW 4.3 km/h 6.4 km/h 96 % 0.25 mm
23:44 14.4 °C 13.8 °C 1009.4 hPa SW 8.2 km/h 13 km/h 96 % 0.25 mm
23:49 14.4 °C 13.8 °C 1009.4 hPa SSW 9.5 km/h 16.1 km/h 96 % 0.25 mm
23:54 14.4 °C 13.8 °C 1009.4 hPa SW 5.6 km/h 9.3 km/h 96 % 0.25 mm
23:59 14.4 °C 13.8 °C 1009 hPa South 6.6 km/h 13 km/h 96 % 0.25 mm
Crab Meadow Weather
Compliments of Weather Underground - 3 mb

Script developed by  Jim McMurry - jmcmurry@mwt.net Adapted for the template by  Wim van der Kuil - Leuven-Template.eu

Recycling: The average household throws away 13,000 separate pieces of paper each year. Most is packaging and junk mail.